sensor_id;sensor_type;location;lat;lon;timestamp;pressure;altitude;pressure_sealevel;temperature;humidity
77869;BME280;67231;59.144;37.934;2023-08-07T00:01:27;100483.69;;;22.72;71.35
77869;BME280;67231;59.144;37.934;2023-08-07T00:03:53;100483.28;;;22.68;71.65
77869;BME280;67231;59.144;37.934;2023-08-07T00:06:19;100486.22;;;22.67;71.59
77869;BME280;67231;59.144;37.934;2023-08-07T00:08:46;100487.69;;;22.63;71.60
77869;BME280;67231;59.144;37.934;2023-08-07T00:11:12;100487.53;;;22.58;71.54
77869;BME280;67231;59.144;37.934;2023-08-07T00:13:38;100489.47;;;22.50;71.90
77869;BME280;67231;59.144;37.934;2023-08-07T00:16:04;100485.97;;;22.43;72.23
77869;BME280;67231;59.144;37.934;2023-08-07T00:18:31;100486.69;;;22.32;72.39
77869;BME280;67231;59.144;37.934;2023-08-07T00:20:57;100484.03;;;22.18;72.81
77869;BME280;67231;59.144;37.934;2023-08-07T00:23:24;100483.06;;;22.06;73.38
77869;BME280;67231;59.144;37.934;2023-08-07T00:25:50;100488.31;;;22.01;73.39
77869;BME280;67231;59.144;37.934;2023-08-07T00:28:16;100486.44;;;21.95;73.61
77869;BME280;67231;59.144;37.934;2023-08-07T00:30:42;100490.44;;;21.86;74.19
77869;BME280;67231;59.144;37.934;2023-08-07T00:33:09;100493.00;;;21.74;74.36
77869;BME280;67231;59.144;37.934;2023-08-07T00:35:35;100493.47;;;21.64;74.58
77869;BME280;67231;59.144;37.934;2023-08-07T00:38:02;100495.94;;;21.59;74.85
77869;BME280;67231;59.144;37.934;2023-08-07T00:40:36;100500.56;;;21.52;74.81
77869;BME280;67231;59.144;37.934;2023-08-07T00:43:03;100498.47;;;21.40;75.01
77869;BME280;67231;59.144;37.934;2023-08-07T00:45:34;100496.84;;;21.33;75.31
77869;BME280;67231;59.144;37.934;2023-08-07T00:48:01;100490.84;;;21.24;75.52
77869;BME280;67231;59.144;37.934;2023-08-07T00:50:28;100491.88;;;21.16;75.76
77869;BME280;67231;59.144;37.934;2023-08-07T00:52:55;100484.63;;;21.10;75.90
77869;BME280;67231;59.144;37.934;2023-08-07T00:55:22;100483.63;;;21.04;75.98
77869;BME280;67231;59.144;37.934;2023-08-07T00:57:49;100483.19;;;21.01;76.14
77869;BME280;67231;59.144;37.934;2023-08-07T01:00:15;100476.34;;;20.98;76.45
77869;BME280;67231;59.144;37.934;2023-08-07T01:02:43;100478.00;;;20.99;76.49
77869;BME280;67231;59.144;37.934;2023-08-07T01:05:10;100481.13;;;20.96;76.21
77869;BME280;67231;59.144;37.934;2023-08-07T01:07:37;100476.78;;;20.95;76.24
77869;BME280;67231;59.144;37.934;2023-08-07T01:10:04;100476.78;;;20.88;76.74
77869;BME280;67231;59.144;37.934;2023-08-07T01:13:08;100474.50;;;20.85;76.48
77869;BME280;67231;59.144;37.934;2023-08-07T01:15:37;100475.94;;;20.88;77.03
77869;BME280;67231;59.144;37.934;2023-08-07T01:18:07;100484.03;;;20.88;76.86
77869;BME280;67231;59.144;37.934;2023-08-07T01:20:34;100477.59;;;20.89;76.90
77869;BME280;67231;59.144;37.934;2023-08-07T01:23:01;100471.19;;;20.90;76.77
77869;BME280;67231;59.144;37.934;2023-08-07T01:25:27;100473.25;;;20.88;77.08
77869;BME280;67231;59.144;37.934;2023-08-07T01:28:11;100466.63;;;20.84;77.34
77869;BME280;67231;59.144;37.934;2023-08-07T01:30:46;100468.69;;;20.82;77.03
77869;BME280;67231;59.144;37.934;2023-08-07T01:36:10;100466.19;;;20.87;77.36
77869;BME280;67231;59.144;37.934;2023-08-07T01:38:37;100463.28;;;20.88;77.08
77869;BME280;67231;59.144;37.934;2023-08-07T01:41:04;100471.19;;;20.90;77.12
77869;BME280;67231;59.144;37.934;2023-08-07T01:43:31;100461.41;;;20.89;76.63
77869;BME280;67231;59.144;37.934;2023-08-07T01:46:02;100466.81;;;20.89;76.93
77869;BME280;67231;59.144;37.934;2023-08-07T01:48:29;100467.44;;;20.91;76.92
77869;BME280;67231;59.144;37.934;2023-08-07T01:50:56;100455.41;;;20.94;77.15
77869;BME280;67231;59.144;37.934;2023-08-07T01:53:23;100468.69;;;20.95;76.72
77869;BME280;67231;59.144;37.934;2023-08-07T01:55:50;100473.00;;;20.96;76.92
77869;BME280;67231;59.144;37.934;2023-08-07T01:58:16;100469.91;;;20.99;76.61
77869;BME280;67231;59.144;37.934;2023-08-07T02:00:42;100464.09;;;21.02;76.34
77869;BME280;67231;59.144;37.934;2023-08-07T02:03:09;100463.06;;;21.03;76.62
77869;BME280;67231;59.144;37.934;2023-08-07T02:05:35;100465.34;;;21.06;76.51
77869;BME280;67231;59.144;37.934;2023-08-07T02:08:02;100460.34;;;21.10;75.90
77869;BME280;67231;59.144;37.934;2023-08-07T02:10:28;100464.28;;;21.14;76.40
77869;BME280;67231;59.144;37.934;2023-08-07T02:12:57;100467.41;;;21.18;76.12
77869;BME280;67231;59.144;37.934;2023-08-07T02:15:23;100469.06;;;21.19;75.93
77869;BME280;67231;59.144;37.934;2023-08-07T02:17:51;100472.97;;;21.23;75.75
77869;BME280;67231;59.144;37.934;2023-08-07T02:20:17;100472.34;;;21.27;75.96
77869;BME280;67231;59.144;37.934;2023-08-07T02:22:44;100477.94;;;21.33;75.67
77869;BME280;67231;59.144;37.934;2023-08-07T02:25:10;100471.00;;;21.63;74.89
77869;BME280;67231;59.144;37.934;2023-08-07T02:27:38;100475.09;;;21.79;73.99
77869;BME280;67231;59.144;37.934;2023-08-07T02:30:06;100470.16;;;21.70;74.54
77869;BME280;67231;59.144;37.934;2023-08-07T02:32:33;100465.59;;;21.63;74.41
77869;BME280;67231;59.144;37.934;2023-08-07T02:34:59;100469.78;;;21.59;74.84
77869;BME280;67231;59.144;37.934;2023-08-07T02:37:25;100469.78;;;21.59;74.78
77869;BME280;67231;59.144;37.934;2023-08-07T02:39:52;100478.06;;;21.64;74.89
77869;BME280;67231;59.144;37.934;2023-08-07T02:42:19;100475.56;;;21.70;74.60
77869;BME280;67231;59.144;37.934;2023-08-07T02:44:47;100468.88;;;21.79;74.16
77869;BME280;67231;59.144;37.934;2023-08-07T02:47:13;100472.59;;;21.85;73.81
77869;BME280;67231;59.144;37.934;2023-08-07T02:49:40;100472.56;;;21.91;73.92
77869;BME280;67231;59.144;37.934;2023-08-07T02:52:07;100476.69;;;21.94;73.81
77869;BME280;67231;59.144;37.934;2023-08-07T02:54:36;100478.53;;;22.00;73.75
77869;BME280;67231;59.144;37.934;2023-08-07T02:57:03;100491.19;;;22.06;73.66
77869;BME280;67231;59.144;37.934;2023-08-07T02:59:29;100490.91;;;22.14;73.58
77869;BME280;67231;59.144;37.934;2023-08-07T03:01:56;100483.16;;;22.25;72.73
77869;BME280;67231;59.144;37.934;2023-08-07T03:04:22;100485.81;;;22.38;72.79
77869;BME280;67231;59.144;37.934;2023-08-07T03:06:48;100479.91;;;22.48;72.50
77869;BME280;67231;59.144;37.934;2023-08-07T03:09:15;100484.63;;;22.59;71.85
77869;BME280;67231;59.144;37.934;2023-08-07T03:11:41;100481.41;;;22.69;71.73
77869;BME280;67231;59.144;37.934;2023-08-07T03:14:07;100491.94;;;22.77;71.06
77869;BME280;67231;59.144;37.934;2023-08-07T03:16:34;100486.88;;;22.87;70.70
77869;BME280;67231;59.144;37.934;2023-08-07T03:19:00;100482.81;;;22.97;70.34
77869;BME280;67231;59.144;37.934;2023-08-07T03:21:26;100482.53;;;23.05;69.77
77869;BME280;67231;59.144;37.934;2023-08-07T03:23:53;100487.72;;;23.13;69.36
77869;BME280;67231;59.144;37.934;2023-08-07T03:26:19;100485.38;;;23.17;69.02
77869;BME280;67231;59.144;37.934;2023-08-07T03:28:47;100479.50;;;23.20;69.08
77869;BME280;67231;59.144;37.934;2023-08-07T03:31:15;100483.63;;;23.22;68.67
77869;BME280;67231;59.144;37.934;2023-08-07T03:33:41;100478.63;;;23.26;68.72
77869;BME280;67231;59.144;37.934;2023-08-07T03:36:08;100482.28;;;23.32;68.36
77869;BME280;67231;59.144;37.934;2023-08-07T03:38:36;100485.78;;;23.39;68.24
77869;BME280;67231;59.144;37.934;2023-08-07T03:41:03;100476.72;;;23.45;68.10
77869;BME280;67231;59.144;37.934;2023-08-07T03:43:30;100475.22;;;23.49;67.79
77869;BME280;67231;59.144;37.934;2023-08-07T03:45:57;100474.91;;;23.57;67.27
77869;BME280;67231;59.144;37.934;2023-08-07T03:48:24;100478.63;;;23.63;67.27
77869;BME280;67231;59.144;37.934;2023-08-07T03:50:50;100479.56;;;23.69;67.09
77869;BME280;67231;59.144;37.934;2023-08-07T03:53:18;100484.66;;;23.77;66.93
77869;BME280;67231;59.144;37.934;2023-08-07T03:55:51;100483.56;;;23.85;67.05
77869;BME280;67231;59.144;37.934;2023-08-07T03:58:20;100485.13;;;23.92;66.50
77869;BME280;67231;59.144;37.934;2023-08-07T04:00:46;100486.09;;;23.98;66.80
77869;BME280;67231;59.144;37.934;2023-08-07T04:03:12;100488.72;;;24.05;66.17
77869;BME280;67231;59.144;37.934;2023-08-07T04:05:39;100486.75;;;24.12;65.90
77869;BME280;67231;59.144;37.934;2023-08-07T04:08:07;100489.13;;;24.20;65.45
77869;BME280;67231;59.144;37.934;2023-08-07T04:10:34;100500.56;;;24.22;65.71
77869;BME280;67231;59.144;37.934;2023-08-07T04:13:00;100493.53;;;24.33;65.34
77869;BME280;67231;59.144;37.934;2023-08-07T04:15:26;100501.09;;;24.43;64.84
77869;BME280;67231;59.144;37.934;2023-08-07T04:17:54;100492.03;;;24.49;65.04
77869;BME280;67231;59.144;37.934;2023-08-07T04:20:21;100491.91;;;24.55;64.72
77869;BME280;67231;59.144;37.934;2023-08-07T04:22:47;100491.59;;;24.64;64.86
77869;BME280;67231;59.144;37.934;2023-08-07T04:25:14;100499.19;;;24.74;64.66
77869;BME280;67231;59.144;37.934;2023-08-07T04:27:40;100492.34;;;24.83;64.45
77869;BME280;67231;59.144;37.934;2023-08-07T04:30:07;100496.25;;;24.87;64.41
77869;BME280;67231;59.144;37.934;2023-08-07T04:32:33;100488.44;;;24.90;64.21
77869;BME280;67231;59.144;37.934;2023-08-07T04:35:00;100496.25;;;24.99;63.75
77869;BME280;67231;59.144;37.934;2023-08-07T04:37:26;100499.91;;;25.04;63.65
77869;BME280;67231;59.144;37.934;2023-08-07T04:39:52;100500.38;;;25.13;63.24
77869;BME280;67231;59.144;37.934;2023-08-07T04:42:20;100509.09;;;25.27;63.59
77869;BME280;67231;59.144;37.934;2023-08-07T04:44:47;100506.25;;;25.45;62.56
77869;BME280;67231;59.144;37.934;2023-08-07T04:47:13;100509.19;;;25.68;62.57
77869;BME280;67231;59.144;37.934;2023-08-07T04:49:39;100510.09;;;27.11;59.41
77869;BME280;67231;59.144;37.934;2023-08-07T04:52:06;100505.19;;;29.73;53.85
77869;BME280;67231;59.144;37.934;2023-08-07T04:54:32;100519.47;;;31.66;49.96
77869;BME280;67231;59.144;37.934;2023-08-07T04:56:58;100513.72;;;33.39;46.56
77869;BME280;67231;59.144;37.934;2023-08-07T04:59:25;100528.31;;;34.26;44.80
77869;BME280;67231;59.144;37.934;2023-08-07T05:01:51;100527.44;;;35.11;42.79
77869;BME280;67231;59.144;37.934;2023-08-07T05:04:17;100525.00;;;35.92;41.25
77869;BME280;67231;59.144;37.934;2023-08-07T05:06:44;100524.91;;;36.20;41.40
77869;BME280;67231;59.144;37.934;2023-08-07T05:09:10;100523.41;;;36.59;40.15
77869;BME280;67231;59.144;37.934;2023-08-07T05:11:36;100521.94;;;37.16;39.07
77869;BME280;67231;59.144;37.934;2023-08-07T05:14:02;100513.63;;;37.16;38.81
77869;BME280;67231;59.144;37.934;2023-08-07T05:16:29;100528.19;;;37.30;38.42
77869;BME280;67231;59.144;37.934;2023-08-07T05:18:56;100520.63;;;37.62;38.16
77869;BME280;67231;59.144;37.934;2023-08-07T05:21:22;100526.25;;;38.41;36.77
77869;BME280;67231;59.144;37.934;2023-08-07T05:23:48;100523.78;;;38.74;36.04
77869;BME280;67231;59.144;37.934;2023-08-07T05:26:19;100524.28;;;39.24;35.25
77869;BME280;67231;59.144;37.934;2023-08-07T05:28:45;100523.94;;;39.55;34.39
77869;BME280;67231;59.144;37.934;2023-08-07T05:31:14;100525.78;;;39.42;34.52
77869;BME280;67231;59.144;37.934;2023-08-07T05:33:43;100523.97;;;39.16;34.71
77869;BME280;67231;59.144;37.934;2023-08-07T05:36:10;100519.63;;;38.98;35.66
77869;BME280;67231;59.144;37.934;2023-08-07T05:38:36;100522.41;;;38.98;34.61
77869;BME280;67231;59.144;37.934;2023-08-07T05:41:03;100532.09;;;38.83;34.80
77869;BME280;67231;59.144;37.934;2023-08-07T05:43:29;100522.69;;;39.05;34.38
77869;BME280;67231;59.144;37.934;2023-08-07T05:45:55;100523.50;;;39.06;34.20
77869;BME280;67231;59.144;37.934;2023-08-07T05:48:22;100522.06;;;39.00;34.21
77869;BME280;67231;59.144;37.934;2023-08-07T05:50:48;100531.66;;;39.49;33.41
77869;BME280;67231;59.144;37.934;2023-08-07T05:53:15;100527.13;;;39.75;33.00
77869;BME280;67231;59.144;37.934;2023-08-07T05:55:41;100531.63;;;39.79;33.20
77869;BME280;67231;59.144;37.934;2023-08-07T05:58:08;100523.19;;;39.97;32.38
77869;BME280;67231;59.144;37.934;2023-08-07T06:00:34;100524.94;;;39.80;32.72
77869;BME280;67231;59.144;37.934;2023-08-07T06:03:00;100527.25;;;39.78;32.34
77869;BME280;67231;59.144;37.934;2023-08-07T06:05:27;100521.56;;;39.96;32.83
77869;BME280;67231;59.144;37.934;2023-08-07T06:07:53;100529.22;;;40.41;31.74
77869;BME280;67231;59.144;37.934;2023-08-07T06:10:19;100526.25;;;40.58;31.61
77869;BME280;67231;59.144;37.934;2023-08-07T06:12:46;100525.31;;;40.54;32.19
77869;BME280;67231;59.144;37.934;2023-08-07T06:15:12;100517.44;;;41.02;31.93
77869;BME280;67231;59.144;37.934;2023-08-07T06:17:39;100520.78;;;41.20;31.77
77869;BME280;67231;59.144;37.934;2023-08-07T06:20:08;100512.31;;;41.17;30.95
77869;BME280;67231;59.144;37.934;2023-08-07T06:22:40;100506.84;;;41.70;30.30
77869;BME280;67231;59.144;37.934;2023-08-07T06:25:07;100510.34;;;41.79;30.87
77869;BME280;67231;59.144;37.934;2023-08-07T06:27:37;100522.41;;;42.11;29.61
77869;BME280;67231;59.144;37.934;2023-08-07T06:30:08;100512.38;;;42.51;29.15
77869;BME280;67231;59.144;37.934;2023-08-07T06:32:34;100504.06;;;42.99;28.78
77869;BME280;67231;59.144;37.934;2023-08-07T06:35:01;100506.56;;;43.20;28.36
77869;BME280;67231;59.144;37.934;2023-08-07T06:37:30;100512.59;;;42.90;28.59
77869;BME280;67231;59.144;37.934;2023-08-07T06:39:56;100507.03;;;42.90;28.75
77869;BME280;67231;59.144;37.934;2023-08-07T06:42:23;100512.41;;;42.83;29.25
77869;BME280;67231;59.144;37.934;2023-08-07T06:44:49;100512.97;;;42.44;29.38
77869;BME280;67231;59.144;37.934;2023-08-07T06:47:16;100502.09;;;42.39;29.56
77869;BME280;67231;59.144;37.934;2023-08-07T06:49:42;100510.72;;;42.34;29.29
77869;BME280;67231;59.144;37.934;2023-08-07T06:52:08;100510.81;;;42.66;28.71
77869;BME280;67231;59.144;37.934;2023-08-07T06:54:35;100502.97;;;42.87;27.86
77869;BME280;67231;59.144;37.934;2023-08-07T06:57:01;100499.09;;;42.92;28.77
77869;BME280;67231;59.144;37.934;2023-08-07T06:59:27;100502.69;;;43.40;27.99
77869;BME280;67231;59.144;37.934;2023-08-07T07:01:53;100493.16;;;43.09;27.71
77869;BME280;67231;59.144;37.934;2023-08-07T07:04:20;100501.34;;;43.18;26.82
77869;BME280;67231;59.144;37.934;2023-08-07T07:06:46;100493.34;;;43.17;26.71
77869;BME280;67231;59.144;37.934;2023-08-07T07:09:12;100496.25;;;43.04;27.76
77869;BME280;67231;59.144;37.934;2023-08-07T07:11:43;100485.22;;;42.96;27.61
77869;BME280;67231;59.144;37.934;2023-08-07T07:14:09;100490.09;;;42.83;27.28
77869;BME280;67231;59.144;37.934;2023-08-07T07:16:36;100489.91;;;42.75;27.37
77869;BME280;67231;59.144;37.934;2023-08-07T07:19:04;100489.38;;;43.18;27.26
77869;BME280;67231;59.144;37.934;2023-08-07T07:21:30;100499.66;;;42.98;27.04
77869;BME280;67231;59.144;37.934;2023-08-07T07:23:57;100490.91;;;42.83;28.17
77869;BME280;67231;59.144;37.934;2023-08-07T07:26:23;100494.59;;;42.71;27.42
77869;BME280;67231;59.144;37.934;2023-08-07T07:28:49;100489.91;;;42.75;27.68
77869;BME280;67231;59.144;37.934;2023-08-07T07:31:17;100484.78;;;42.62;27.23
77869;BME280;67231;59.144;37.934;2023-08-07T07:33:43;100491.34;;;42.69;27.29
77869;BME280;67231;59.144;37.934;2023-08-07T07:36:16;100475.97;;;42.31;27.44
77869;BME280;67231;59.144;37.934;2023-08-07T07:38:45;100483.06;;;42.57;28.06
77869;BME280;67231;59.144;37.934;2023-08-07T07:41:11;100491.38;;;43.01;27.49
77869;BME280;67231;59.144;37.934;2023-08-07T07:43:37;100476.03;;;42.63;26.76
77869;BME280;67231;59.144;37.934;2023-08-07T07:46:04;100487.00;;;41.99;27.67
77869;BME280;67231;59.144;37.934;2023-08-07T07:48:31;100483.16;;;41.76;27.98
77869;BME280;67231;59.144;37.934;2023-08-07T07:51:01;100479.94;;;41.49;27.94
77869;BME280;67231;59.144;37.934;2023-08-07T07:53:27;100474.88;;;41.39;28.31
77869;BME280;67231;59.144;37.934;2023-08-07T07:55:54;100474.75;;;41.88;27.80
77869;BME280;67231;59.144;37.934;2023-08-07T07:58:21;100475.78;;;42.24;27.98
77869;BME280;67231;59.144;37.934;2023-08-07T08:00:47;100486.31;;;42.59;27.87
77869;BME280;67231;59.144;37.934;2023-08-07T08:03:13;100477.66;;;41.92;27.50
77869;BME280;67231;59.144;37.934;2023-08-07T08:05:39;100476.06;;;42.19;28.21
77869;BME280;67231;59.144;37.934;2023-08-07T08:08:06;100476.34;;;42.46;26.72
77869;BME280;67231;59.144;37.934;2023-08-07T08:10:34;100470.50;;;42.07;27.57
77869;BME280;67231;59.144;37.934;2023-08-07T08:13:01;100474.06;;;42.19;27.32
77869;BME280;67231;59.144;37.934;2023-08-07T08:15:30;100467.97;;;42.30;27.71
77869;BME280;67231;59.144;37.934;2023-08-07T08:17:56;100478.19;;;41.97;27.58
77869;BME280;67231;59.144;37.934;2023-08-07T08:20:22;100474.09;;;41.66;27.78
77869;BME280;67231;59.144;37.934;2023-08-07T08:22:49;100468.81;;;41.49;27.87
77869;BME280;67231;59.144;37.934;2023-08-07T08:25:15;100477.63;;;41.14;27.54
77869;BME280;67231;59.144;37.934;2023-08-07T08:27:43;100472.03;;;40.65;28.74
77869;BME280;67231;59.144;37.934;2023-08-07T08:30:10;100479.66;;;40.68;28.80
77869;BME280;67231;59.144;37.934;2023-08-07T08:32:36;100472.16;;;40.35;29.24
77869;BME280;67231;59.144;37.934;2023-08-07T08:35:03;100461.50;;;40.03;30.10
77869;BME280;67231;59.144;37.934;2023-08-07T08:37:29;100475.97;;;40.30;29.35
77869;BME280;67231;59.144;37.934;2023-08-07T08:39:56;100471.69;;;39.57;29.88
77869;BME280;67231;59.144;37.934;2023-08-07T08:42:22;100454.50;;;38.04;31.17
77869;BME280;67231;59.144;37.934;2023-08-07T08:44:52;100456.56;;;36.57;33.16
77869;BME280;67231;59.144;37.934;2023-08-07T08:47:18;100463.09;;;35.29;35.07
77869;BME280;67231;59.144;37.934;2023-08-07T08:49:50;100450.69;;;34.38;36.15
77869;BME280;67231;59.144;37.934;2023-08-07T08:52:17;100444.94;;;34.02;36.83
77869;BME280;67231;59.144;37.934;2023-08-07T08:54:44;100450.63;;;33.67;36.84
77869;BME280;67231;59.144;37.934;2023-08-07T08:57:11;100443.84;;;33.41;37.53
77869;BME280;67231;59.144;37.934;2023-08-07T08:59:40;100428.63;;;33.24;38.44
77869;BME280;67231;59.144;37.934;2023-08-07T09:02:08;100441.13;;;33.11;38.32
77869;BME280;67231;59.144;37.934;2023-08-07T09:04:34;100443.94;;;32.82;39.13
77869;BME280;67231;59.144;37.934;2023-08-07T09:07:01;100435.88;;;32.61;39.62
77869;BME280;67231;59.144;37.934;2023-08-07T09:09:28;100423.50;;;32.35;39.65
77869;BME280;67231;59.144;37.934;2023-08-07T09:11:57;100424.72;;;32.23;39.59
77869;BME280;67231;59.144;37.934;2023-08-07T09:14:26;100420.31;;;32.22;40.17
77869;BME280;67231;59.144;37.934;2023-08-07T09:16:53;100423.28;;;32.26;39.90
77869;BME280;67231;59.144;37.934;2023-08-07T09:19:20;100413.00;;;32.07;40.42
77869;BME280;67231;59.144;37.934;2023-08-07T09:21:46;100429.84;;;31.90;40.23
77869;BME280;67231;59.144;37.934;2023-08-07T09:24:12;100417.50;;;31.93;40.60
77869;BME280;67231;59.144;37.934;2023-08-07T09:26:41;100421.53;;;32.01;41.45
77869;BME280;67231;59.144;37.934;2023-08-07T09:29:09;100414.38;;;32.05;40.61
77869;BME280;67231;59.144;37.934;2023-08-07T09:31:36;100423.72;;;32.04;40.53
77869;BME280;67231;59.144;37.934;2023-08-07T09:34:04;100413.28;;;32.01;41.56
77869;BME280;67231;59.144;37.934;2023-08-07T09:36:32;100400.75;;;31.94;40.84
77869;BME280;67231;59.144;37.934;2023-08-07T09:39:02;100403.47;;;31.94;40.29
77869;BME280;67231;59.144;37.934;2023-08-07T09:41:29;100412.72;;;32.04;40.43
77869;BME280;67231;59.144;37.934;2023-08-07T09:43:57;100411.72;;;31.94;40.30
77869;BME280;67231;59.144;37.934;2023-08-07T09:46:25;100418.81;;;31.95;40.91
77869;BME280;67231;59.144;37.934;2023-08-07T09:48:57;100401.78;;;31.99;40.37
77869;BME280;67231;59.144;37.934;2023-08-07T09:51:24;100398.06;;;31.84;40.54
77869;BME280;67231;59.144;37.934;2023-08-07T09:53:51;100390.63;;;31.90;40.57
77869;BME280;67231;59.144;37.934;2023-08-07T09:56:17;100380.69;;;31.94;41.37
77869;BME280;67231;59.144;37.934;2023-08-07T09:58:47;100383.09;;;32.01;41.03
77869;BME280;67231;59.144;37.934;2023-08-07T10:01:15;100381.19;;;32.01;40.85
77869;BME280;67231;59.144;37.934;2023-08-07T10:03:42;100379.50;;;32.10;39.94
77869;BME280;67231;59.144;37.934;2023-08-07T10:06:09;100374.03;;;32.10;40.22
77869;BME280;67231;59.144;37.934;2023-08-07T10:08:36;100385.31;;;31.99;40.41
77869;BME280;67231;59.144;37.934;2023-08-07T10:11:04;100373.06;;;31.86;40.55
77869;BME280;67231;59.144;37.934;2023-08-07T10:13:31;100364.09;;;31.75;41.05
77869;BME280;67231;59.144;37.934;2023-08-07T10:15:58;100372.34;;;31.70;40.78
77869;BME280;67231;59.144;37.934;2023-08-07T10:18:24;100365.25;;;31.64;41.70
77869;BME280;67231;59.144;37.934;2023-08-07T10:20:51;100378.22;;;31.58;41.84
77869;BME280;67231;59.144;37.934;2023-08-07T10:23:17;100371.06;;;31.57;42.06
77869;BME280;67231;59.144;37.934;2023-08-07T10:25:45;100368.63;;;31.55;41.63
77869;BME280;67231;59.144;37.934;2023-08-07T10:28:16;100358.19;;;31.57;41.83
77869;BME280;67231;59.144;37.934;2023-08-07T10:30:44;100356.75;;;31.65;42.01
77869;BME280;67231;59.144;37.934;2023-08-07T10:33:12;100357.31;;;31.62;42.04
77869;BME280;67231;59.144;37.934;2023-08-07T10:35:44;100357.91;;;31.59;41.82
77869;BME280;67231;59.144;37.934;2023-08-07T10:38:11;100352.66;;;31.63;42.52
77869;BME280;67231;59.144;37.934;2023-08-07T10:41:05;100341.19;;;31.55;42.27
77869;BME280;67231;59.144;37.934;2023-08-07T10:43:37;100342.03;;;31.46;42.35
77869;BME280;67231;59.144;37.934;2023-08-07T10:46:10;100349.78;;;31.33;42.58
77869;BME280;67231;59.144;37.934;2023-08-07T10:48:47;100343.00;;;31.26;42.94
77869;BME280;67231;59.144;37.934;2023-08-07T10:51:15;100338.06;;;31.22;43.04
77869;BME280;67231;59.144;37.934;2023-08-07T10:53:47;100326.56;;;31.20;43.08
77869;BME280;67231;59.144;37.934;2023-08-07T10:56:18;100330.38;;;31.25;43.15
77869;BME280;67231;59.144;37.934;2023-08-07T10:58:54;100330.91;;;31.27;42.98
77869;BME280;67231;59.144;37.934;2023-08-07T11:04:12;100315.53;;;31.31;43.25
77869;BME280;67231;59.144;37.934;2023-08-07T11:06:41;100326.44;;;31.41;43.56
77869;BME280;67231;59.144;37.934;2023-08-07T11:09:09;100319.66;;;31.28;43.05
77869;BME280;67231;59.144;37.934;2023-08-07T11:11:44;100310.41;;;31.19;43.82
77869;BME280;67231;59.144;37.934;2023-08-07T11:14:13;100315.06;;;31.18;43.39
77869;BME280;67231;59.144;37.934;2023-08-07T11:16:41;100301.41;;;31.08;43.97
77869;BME280;67231;59.144;37.934;2023-08-07T11:19:08;100296.25;;;31.01;44.64
77869;BME280;67231;59.144;37.934;2023-08-07T11:21:36;100300.88;;;31.06;44.85
77869;BME280;67231;59.144;37.934;2023-08-07T11:24:03;100299.25;;;31.05;44.66
77869;BME280;67231;59.144;37.934;2023-08-07T11:26:29;100305.78;;;31.09;44.54
77869;BME280;67231;59.144;37.934;2023-08-07T11:28:56;100299.25;;;31.05;44.53
77869;BME280;67231;59.144;37.934;2023-08-07T11:31:24;100298.19;;;30.91;45.11
77869;BME280;67231;59.144;37.934;2023-08-07T11:33:54;100299.31;;;30.84;44.81
77869;BME280;67231;59.144;37.934;2023-08-07T11:36:22;100294.38;;;30.81;45.16
77869;BME280;67231;59.144;37.934;2023-08-07T11:38:48;100300.13;;;30.85;44.90
77869;BME280;67231;59.144;37.934;2023-08-07T11:41:16;100289.97;;;30.91;45.23
77869;BME280;67231;59.144;37.934;2023-08-07T11:43:43;100301.81;;;30.76;45.00
77869;BME280;67231;59.144;37.934;2023-08-07T11:46:12;100291.69;;;30.71;44.81
77869;BME280;67231;59.144;37.934;2023-08-07T11:48:41;100289.78;;;30.72;45.62
77869;BME280;67231;59.144;37.934;2023-08-07T11:51:09;100284.00;;;30.73;45.29
77869;BME280;67231;59.144;37.934;2023-08-07T11:53:37;100280.22;;;30.64;45.28
77869;BME280;67231;59.144;37.934;2023-08-07T11:56:08;100277.47;;;30.64;46.21
77869;BME280;67231;59.144;37.934;2023-08-07T11:58:40;100280.22;;;30.59;46.11
77869;BME280;67231;59.144;37.934;2023-08-07T12:01:18;100272.31;;;30.52;45.95
77869;BME280;67231;59.144;37.934;2023-08-07T12:04:17;100267.69;;;30.42;46.06
77869;BME280;67231;59.144;37.934;2023-08-07T12:06:54;100265.22;;;30.46;46.30
77869;BME280;67231;59.144;37.934;2023-08-07T12:09:21;100264.41;;;30.45;46.42
77869;BME280;67231;59.144;37.934;2023-08-07T12:11:48;100267.16;;;30.40;46.54
77869;BME280;67231;59.144;37.934;2023-08-07T12:14:15;100258.38;;;30.33;46.75
77869;BME280;67231;59.144;37.934;2023-08-07T12:16:47;100262.22;;;30.27;46.47
77869;BME280;67231;59.144;37.934;2023-08-07T12:19:14;100269.91;;;30.25;46.98
77869;BME280;67231;59.144;37.934;2023-08-07T12:21:41;100264.97;;;30.27;47.08
77869;BME280;67231;59.144;37.934;2023-08-07T12:24:07;100263.34;;;30.26;46.70
77869;BME280;67231;59.144;37.934;2023-08-07T12:26:33;100261.16;;;30.18;46.95
77869;BME280;67231;59.144;37.934;2023-08-07T12:29:00;100254.31;;;30.15;47.61
77869;BME280;67231;59.144;37.934;2023-08-07T12:31:26;100258.13;;;30.19;47.14
77869;BME280;67231;59.144;37.934;2023-08-07T12:33:52;100251.28;;;30.22;47.31
77869;BME280;67231;59.144;37.934;2023-08-07T12:36:19;100252.38;;;30.21;47.50
77869;BME280;67231;59.144;37.934;2023-08-07T12:38:45;100245.84;;;30.17;47.46
77869;BME280;67231;59.144;37.934;2023-08-07T12:41:12;100241.75;;;30.09;47.42
77869;BME280;67231;59.144;37.934;2023-08-07T12:43:40;100236.56;;;30.07;47.49
77869;BME280;67231;59.144;37.934;2023-08-07T12:46:06;100237.09;;;30.04;47.55
77869;BME280;67231;59.144;37.934;2023-08-07T12:48:32;100240.13;;;30.03;47.67